Time;durP1;ratioP1;P1;durP2;ratioP2;P2;SDS_P1;SDS_P2;PMS_P1;PMS_P2;Temp;Humidity;BMP_temperature;BMP_pressure;BME280_temperature;BME280_humidity;BME280_pressure;Samples;Min_cycle;Max_cycle;Signal;HPM_P1;HPM_P2
2021/11/20 00:01:10;;;;;;;13.95;7.63;;;;;;;14.74;62.17;102855.97;4946382;28;118726;-73
2021/11/20 00:03:39;;;;;;;10.40;6.80;;;;;;;14.73;62.24;102843.53;4930185;28;123948;-72
2021/11/20 00:06:07;;;;;;;11.05;7.05;;;;;;;14.73;62.22;102849.78;4948024;28;124993;-72
2021/11/20 00:08:34;;;;;;;10.35;7.25;;;;;;;14.73;62.29;102848.88;4947339;28;119969;-72
2021/11/20 00:11:04;;;;;;;11.65;7.65;;;;;;;14.72;62.25;102848.00;4947290;28;119714;-72
2021/11/20 00:13:31;;;;;;;10.32;7.22;;;;;;;14.71;62.20;102835.63;4929806;28;124111;-72
2021/11/20 00:16:00;;;;;;;9.90;6.97;;;;;;;14.71;62.15;102829.38;4925247;28;122809;-72
2021/11/20 00:18:30;;;;;;;13.75;8.00;;;;;;;14.70;62.08;102838.31;4929174;28;119419;-72
2021/11/20 00:21:00;;;;;;;11.88;7.55;;;;;;;14.71;62.13;102840.94;4947607;28;120150;-72
2021/11/20 00:23:35;;;;;;;10.43;7.53;;;;;;;14.71;62.11;102843.63;4946705;28;124426;-72
2021/11/20 00:26:04;;;;;;;11.80;7.60;;;;;;;14.74;61.96;102839.97;4943800;28;123923;-71
2021/11/20 00:28:43;;;;;;;11.85;7.88;;;;;;;14.73;62.06;102846.22;4929664;28;118881;-71
2021/11/20 00:31:15;;;;;;;12.13;8.18;;;;;;;14.73;62.01;102838.22;4931143;28;117831;-71
2021/11/20 00:33:44;;;;;;;12.02;7.85;;;;;;;14.73;62.00;102848.88;4943145;28;123952;-71
2021/11/20 00:36:12;;;;;;;14.77;9.13;;;;;;;14.72;62.02;102852.47;4947818;28;124622;-71
2021/11/20 00:38:42;;;;;;;13.27;8.35;;;;;;;14.73;61.93;102854.22;4945195;28;119402;-71
2021/11/20 00:41:13;;;;;;;11.18;8.05;;;;;;;14.72;62.07;102852.47;4928744;28;118980;-71
2021/11/20 00:43:43;;;;;;;13.40;8.95;;;;;;;14.74;61.93;102850.63;4941951;28;123740;-71
2021/11/20 00:46:12;;;;;;;10.70;8.30;;;;;;;14.74;62.04;102839.97;4929946;28;123434;-71
2021/11/20 00:48:42;;;;;;;12.35;8.38;;;;;;;14.74;61.93;102831.97;4944512;28;119143;-71
2021/11/20 00:51:10;;;;;;;15.00;9.32;;;;;;;14.74;61.86;102834.63;4929204;28;118985;-71
2021/11/20 00:53:41;;;;;;;13.50;8.70;;;;;;;14.73;61.91;102838.22;4929584;28;122266;-71
2021/11/20 00:56:11;;;;;;;14.85;8.95;;;;;;;14.71;61.92;102829.38;4929326;28;123878;-72
2021/11/20 00:58:39;;;;;;;11.55;8.38;;;;;;;14.72;61.88;102825.81;4920092;28;118418;-71
2021/11/20 01:01:09;;;;;;;14.10;8.57;;;;;;;14.72;61.93;102817.81;4946761;28;119419;-72
2021/11/20 01:03:36;;;;;;;13.07;9.25;;;;;;;14.72;61.54;102816.00;4928605;28;121931;-72
2021/11/20 01:06:04;;;;;;;14.25;9.45;;;;;;;14.73;61.88;102816.88;4929528;28;123931;-72
2021/11/20 01:08:34;;;;;;;15.55;9.50;;;;;;;14.71;61.63;102808.03;4944351;28;121120;-72
2021/11/20 01:11:09;;;;;;;15.80;9.45;;;;;;;14.70;61.75;102811.66;4929083;28;119107;-72
2021/11/20 01:13:37;;;;;;;15.60;9.70;;;;;;;14.68;61.68;102808.16;4914406;28;123926;-72
2021/11/20 01:16:07;;;;;;;15.05;10.02;;;;;;;14.68;61.65;102813.50;4929542;28;122784;-72
2021/11/20 01:18:35;;;;;;;15.38;9.95;;;;;;;14.67;61.64;102801.06;4947141;28;118477;-72
2021/11/20 01:21:12;;;;;;;16.70;9.73;;;;;;;14.67;61.69;102798.41;4929221;28;118196;-73
2021/11/20 01:23:42;;;;;;;14.68;9.57;;;;;;;14.66;61.54;102800.19;4926916;28;123140;-73
2021/11/20 01:26:13;;;;;;;16.08;9.93;;;;;;;14.67;61.71;102803.72;4929776;28;123185;-72
2021/11/20 01:28:54;;;;;;;15.27;9.70;;;;;;;14.67;61.60;102801.06;4926048;28;119501;-72
2021/11/20 01:31:35;;;;;;;13.68;9.05;;;;;;;14.67;61.45;102795.72;4935168;28;118396;-73
2021/11/20 01:34:03;;;;;;;15.43;9.82;;;;;;;14.66;61.47;102791.34;4923274;28;122985;-72
2021/11/20 01:36:33;;;;;;;15.23;9.63;;;;;;;14.66;61.59;102788.66;4931103;28;122974;-72
2021/11/20 01:39:05;;;;;;;15.13;9.80;;;;;;;14.64;61.39;102791.38;4933418;28;118573;-72
2021/11/20 01:41:38;;;;;;;14.73;9.93;;;;;;;14.63;61.35;102778.09;4932553;28;118485;-72
2021/11/20 01:44:23;;;;;;;15.32;10.02;;;;;;;14.62;61.70;102782.56;4923490;28;122857;-72
2021/11/20 01:46:58;;;;;;;16.77;10.15;;;;;;;14.62;61.30;102787.00;4940255;28;123585;-72
2021/11/20 01:49:35;;;;;;;16.10;10.75;;;;;;;14.59;61.32;102778.16;4951275;28;117700;-72
2021/11/20 01:52:27;;;;;;;16.75;10.80;;;;;;;14.58;61.32;102781.78;4941075;28;118301;-72
2021/11/20 01:55:08;;;;;;;16.80;11.02;;;;;;;14.57;61.38;102769.34;4951495;28;123959;-72
2021/11/20 01:57:51;;;;;;;16.85;10.95;;;;;;;14.57;61.19;102768.47;4939901;28;123158;-72
2021/11/20 02:00:34;;;;;;;18.60;11.48;;;;;;;14.57;61.45;102769.34;4941232;28;119724;-73
2021/11/20 02:03:22;;;;;;;18.45;12.27;;;;;;;14.56;61.19;102762.25;4944580;28;118475;-72
2021/11/20 02:06:04;;;;;;;18.75;12.20;;;;;;;14.56;61.10;102759.59;4939706;28;122237;-72
2021/11/20 02:08:47;;;;;;;18.92;12.13;;;;;;;14.55;61.08;102763.16;4923332;28;122931;-73
2021/11/20 02:11:20;;;;;;;20.65;12.43;;;;;;;14.56;61.18;102762.25;4958507;28;118741;-73
2021/11/20 02:13:49;;;;;;;21.75;12.88;;;;;;;14.57;61.05;102764.00;4952254;28;119910;-73
2021/11/20 02:16:20;;;;;;;20.05;12.48;;;;;;;14.58;61.15;102760.44;4936788;28;123401;-73
2021/11/20 02:18:51;;;;;;;20.90;12.32;;;;;;;14.58;60.90;102755.09;4950134;28;124144;-73
2021/11/20 02:22:02;;;;;;;19.80;12.35;;;;;;;14.58;61.15;102760.44;4931093;28;118414;-73
2021/11/20 02:24:30;;;;;;;22.65;13.52;;;;;;;14.58;61.13;102760.44;4922781;28;118075;-73
2021/11/20 02:27:23;;;;;;;22.73;13.38;;;;;;;14.60;61.08;102763.94;4949257;28;124549;-72
2021/11/20 02:30:40;;;;;;;21.80;13.02;;;;;;;14.62;61.06;102755.00;4933127;28;123301;-73
2021/11/20 02:33:19;;;;;;;23.80;13.73;;;;;;;14.63;61.09;102754.09;4887519;28;118775;-72
2021/11/20 02:35:52;;;;;;;;;;;;;;;14.60;61.11;102747.94;4925562;28;118627;-73
2021/11/20 02:38:27;;;;;;;26.30;13.38;;;;;;;14.63;60.93;102754.09;4915333;28;124161;-72
2021/11/20 02:40:56;;;;;;;23.35;14.32;;;;;;;14.62;60.95;102757.66;4930452;28;123438;-72
2021/11/20 02:43:26;;;;;;;23.02;13.90;;;;;;;14.60;61.11;102753.25;4916606;28;118375;-72
2021/11/20 02:46:09;;;;;;;21.42;13.35;;;;;;;14.61;61.06;102751.47;4930783;28;118379;-72
2021/11/20 02:48:38;;;;;;;24.08;14.73;;;;;;;14.62;61.02;102749.66;4930978;28;123842;-73
2021/11/20 02:51:08;;;;;;;23.40;13.70;;;;;;;14.63;61.00;102751.41;4930306;28;123037;-73
2021/11/20 02:53:39;;;;;;;25.33;14.15;;;;;;;14.65;60.89;102754.91;4931534;28;119629;-73
2021/11/20 02:56:10;;;;;;;25.17;14.85;;;;;;;14.67;60.99;102742.41;4931668;28;118917;-73
2021/11/20 02:58:39;;;;;;;24.38;14.35;;;;;;;14.66;60.89;102736.19;4929818;28;125889;-73
2021/11/20 03:01:11;;;;;;;27.10;15.18;;;;;;;14.67;60.84;102747.72;4950299;28;124601;-73
2021/11/20 03:03:40;;;;;;;26.80;15.35;;;;;;;14.68;61.00;102744.16;4915607;28;117274;-73
2021/11/20 03:06:07;;;;;;;26.77;15.35;;;;;;;14.68;60.93;102744.16;4915133;28;118422;-73
2021/11/20 03:08:35;;;;;;;26.98;15.25;;;;;;;14.69;60.89;102735.22;4930615;28;123620;-73
2021/11/20 03:11:13;;;;;;;24.58;14.27;;;;;;;14.70;60.88;102728.97;4926507;28;123227;-73
2021/11/20 03:13:47;;;;;;;27.60;15.25;;;;;;;14.70;60.72;102731.63;4928459;28;118519;-73
2021/11/20 03:16:27;;;;;;;24.50;15.52;;;;;;;14.70;60.87;102731.63;4930869;28;118134;-73
2021/11/20 03:18:54;;;;;;;25.58;15.10;;;;;;;14.71;60.86;102722.69;4930969;28;123219;-74
2021/11/20 03:21:21;;;;;;;26.27;14.68;;;;;;;14.71;60.83;102709.34;4928948;28;124054;-73
2021/11/20 03:23:52;;;;;;;28.63;15.20;;;;;;;14.71;60.92;102720.03;4930431;28;118481;-73
2021/11/20 03:26:20;;;;;;;27.20;15.60;;;;;;;14.71;60.92;102720.03;4928490;28;117195;-73
2021/11/20 03:28:47;;;;;;;29.70;15.30;;;;;;;14.69;60.89;102720.09;4948891;28;124141;-73
2021/11/20 03:31:15;;;;;;;27.55;15.00;;;;;;;14.67;60.90;102707.72;4928659;28;124312;-73
2021/11/20 03:33:42;;;;;;;27.85;15.45;;;;;;;14.67;60.84;102715.72;4945125;28;119450;-73
2021/11/20 03:36:10;;;;;;;29.30;16.33;;;;;;;14.66;60.90;102719.31;4931287;28;118286;-73
2021/11/20 03:38:37;;;;;;;29.02;16.25;;;;;;;14.63;60.93;102711.41;4929870;28;124765;-74
2021/11/20 03:41:08;;;;;;;28.77;15.98;;;;;;;14.64;60.98;102707.84;4911971;28;123422;-73
2021/11/20 03:43:36;;;;;;;33.40;16.23;;;;;;;14.64;60.92;102707.84;4929320;28;119367;-73
2021/11/20 03:46:04;;;;;;;29.50;15.75;;;;;;;14.63;60.95;102708.75;4948373;28;120589;-73
2021/11/20 03:48:32;;;;;;;28.83;16.20;;;;;;;14.62;60.99;102709.66;4930066;28;123358;-73
2021/11/20 03:51:01;;;;;;;30.75;16.17;;;;;;;14.62;61.01;102713.22;4927569;28;122095;-73
2021/11/20 03:53:30;;;;;;;32.35;16.88;;;;;;;14.63;60.89;102714.94;4929969;28;119141;-73
2021/11/20 03:55:57;;;;;;;31.02;16.77;;;;;;;14.63;60.92;102704.28;4946249;28;118965;-73
2021/11/20 03:58:25;;;;;;;32.13;16.73;;;;;;;14.63;60.95;102708.75;4929485;28;123611;-73
2021/11/20 04:01:02;;;;;;;31.23;17.02;;;;;;;14.64;60.82;102706.03;4928804;28;123444;-73
2021/11/20 04:03:33;;;;;;;30.08;16.52;;;;;;;14.65;60.92;102707.75;4928894;28;118797;-73
2021/11/20 04:06:02;;;;;;;31.15;16.83;;;;;;;14.64;60.83;102705.19;4913796;28;118229;-73
2021/11/20 04:08:31;;;;;;;31.55;17.00;;;;;;;14.63;60.84;102703.41;4929336;28;123866;-73
2021/11/20 04:11:05;;;;;;;31.63;16.67;;;;;;;14.64;61.01;102697.16;4912179;28;123411;-73
2021/11/20 04:13:36;;;;;;;32.42;17.45;;;;;;;14.63;60.85;102703.41;4947472;28;119434;-73
2021/11/20 04:16:07;;;;;;;35.42;17.80;;;;;;;14.63;60.73;102698.06;4947909;28;119585;-73
2021/11/20 04:18:35;;;;;;;34.50;17.65;;;;;;;14.63;60.91;102698.06;4928831;28;123096;-74
2021/11/20 04:21:03;;;;;;;36.30;17.52;;;;;;;14.63;60.80;102698.06;4928831;28;122806;-73
2021/11/20 04:23:30;;;;;;;34.67;17.95;;;;;;;14.63;60.90;102703.41;4929748;28;118495;-73
2021/11/20 04:25:58;;;;;;;33.83;17.67;;;;;;;14.63;60.75;102698.06;4948134;28;119659;-73
2021/11/20 04:28:25;;;;;;;37.33;18.23;;;;;;;14.62;60.89;102696.31;4913856;28;123295;-73
2021/11/20 04:31:05;;;;;;;35.65;18.05;;;;;;;14.60;60.91;102699.94;4929024;28;123376;-73
2021/11/20 04:33:32;;;;;;;36.58;18.13;;;;;;;14.60;61.02;102694.59;4947090;28;120444;-73
2021/11/20 04:36:00;;;;;;;37.92;18.00;;;;;;;14.60;60.75;102689.25;4929909;28;119297;-73
2021/11/20 04:38:27;;;;;;;38.35;18.90;;;;;;;14.59;60.96;102687.50;4928990;28;123180;-73
2021/11/20 04:40:54;;;;;;;33.88;17.30;;;;;;;14.60;60.96;102683.94;4928993;28;123090;-73
2021/11/20 04:43:21;;;;;;;39.45;18.98;;;;;;;14.59;60.90;102686.63;4927167;28;119477;-73
2021/11/20 04:45:51;;;;;;;38.30;18.05;;;;;;;14.58;60.90;102675.09;4928307;28;117407;-73
2021/11/20 04:48:19;;;;;;;38.22;18.58;;;;;;;14.58;60.95;102680.44;4928882;28;123259;-73
2021/11/20 04:50:53;;;;;;;39.17;18.38;;;;;;;14.57;61.02;102684.00;4928188;28;122718;-73
2021/11/20 04:53:20;;;;;;;40.05;18.83;;;;;;;14.56;60.86;102684.03;4931389;28;119099;-73
2021/11/20 04:55:48;;;;;;;37.55;17.67;;;;;;;14.55;61.06;102690.28;4929271;28;118708;-73
2021/11/20 04:58:15;;;;;;;37.30;18.13;;;;;;;14.53;61.01;102682.34;4946482;28;124050;-73
2021/11/20 05:00:48;;;;;;;39.13;18.55;;;;;;;14.53;61.10;102687.69;4928244;28;122991;-73
2021/11/20 05:03:20;;;;;;;39.42;17.92;;;;;;;14.53;61.08;102679.69;4914123;28;118963;-73
2021/11/20 05:05:49;;;;;;;38.63;17.77;;;;;;;14.53;61.08;102677.00;4930178;28;117405;-73
2021/11/20 05:08:17;;;;;;;41.25;19.02;;;;;;;14.53;61.10;102677.00;4928825;28;123936;-73
2021/11/20 05:10:47;;;;;;;39.90;18.73;;;;;;;14.51;61.09;102678.84;4929934;28;124869;-73
2021/11/20 05:13:16;;;;;;;38.13;18.73;;;;;;;14.51;61.14;102676.19;4933796;28;118307;-73
2021/11/20 05:15:45;;;;;;;39.47;18.52;;;;;;;14.51;61.16;102678.84;4950413;28;118356;-72
2021/11/20 05:18:12;;;;;;;40.00;18.52;;;;;;;14.52;61.04;102675.28;4918668;28;124110;-73
2021/11/20 05:20:50;;;;;;;38.10;17.58;;;;;;;14.52;61.36;102677.94;4949841;28;123302;-73
2021/11/20 05:23:17;;;;;;;40.38;19.00;;;;;;;14.52;61.02;102675.28;4934843;28;120052;-73
2021/11/20 05:25:46;;;;;;;39.85;18.38;;;;;;;14.52;61.18;102677.94;4949498;28;119680;-73
2021/11/20 05:28:15;;;;;;;38.92;17.75;;;;;;;14.52;61.04;102677.06;4953217;28;124783;-73
2021/11/20 05:30:45;;;;;;;38.88;18.92;;;;;;;14.50;61.06;102670.91;4925536;28;123819;-73
2021/11/20 05:33:18;;;;;;;40.78;19.27;;;;;;;14.49;61.13;102667.38;4935415;28;119279;-73
2021/11/20 05:35:46;;;;;;;42.67;18.35;;;;;;;14.48;61.14;102665.59;4933810;28;118007;-73
2021/11/20 05:38:16;;;;;;;38.38;18.15;;;;;;;14.46;60.90;102662.13;4935284;28;122980;-74
2021/11/20 05:40:43;;;;;;;38.15;18.48;;;;;;;14.45;61.00;102665.72;4927404;28;122530;-73
2021/11/20 05:43:14;;;;;;;34.80;17.95;;;;;;;14.43;60.80;102654.25;4933737;28;119576;-73
2021/11/20 05:45:46;;;;;;;33.97;17.25;;;;;;;14.41;60.80;102656.09;4927608;28;118295;-74
2021/11/20 05:48:14;;;;;;;34.08;17.13;;;;;;;14.39;60.70;102648.13;4934563;28;123387;-73
2021/11/20 05:50:43;;;;;;;32.50;16.75;;;;;;;14.39;60.60;102647.25;4932962;28;123640;-72
2021/11/20 05:53:14;;;;;;;34.58;17.60;;;;;;;14.39;60.33;102641.91;4952837;28;119092;-73
2021/11/20 05:55:43;;;;;;;33.03;17.20;;;;;;;14.39;60.42;102639.25;4932587;28;120987;-73
2021/11/20 05:58:11;;;;;;;31.92;16.27;;;;;;;14.39;60.34;102641.91;4916650;28;123705;-73
2021/11/20 06:00:42;;;;;;;31.67;16.75;;;;;;;14.38;60.20;102641.03;4933772;28;123869;-74
2021/11/20 06:03:10;;;;;;;31.30;16.25;;;;;;;14.37;60.19;102634.00;4932487;28;120514;-73
2021/11/20 06:05:51;;;;;;;28.58;15.73;;;;;;;14.36;60.20;102626.03;4920814;28;118974;-73
2021/11/20 06:08:20;;;;;;;30.48;16.42;;;;;;;14.36;60.15;102626.03;4934468;28;123735;-73
2021/11/20 06:10:52;;;;;;;30.92;15.88;;;;;;;14.36;60.25;102631.38;4931779;28;124301;-73
2021/11/20 06:13:20;;;;;;;30.98;16.65;;;;;;;14.35;60.06;102633.16;4934133;28;119475;-73
2021/11/20 06:15:57;;;;;;;29.67;16.05;;;;;;;14.34;59.96;102622.56;4934985;28;119691;-74
2021/11/20 06:18:26;;;;;;;34.55;17.70;;;;;;;14.32;59.99;102619.06;4947967;28;123217;-73
2021/11/20 06:20:55;;;;;;;35.50;18.42;;;;;;;14.29;59.96;102617.34;4934319;28;123533;-73
2021/11/20 06:23:27;;;;;;;34.03;18.98;;;;;;;14.29;59.78;102619.16;4931855;28;118594;-73
2021/11/20 06:25:59;;;;;;;34.45;18.27;;;;;;;14.28;59.73;102620.06;4916099;28;118432;-71
2021/11/20 06:28:27;;;;;;;36.85;19.02;;;;;;;14.28;59.70;102618.28;4930053;28;123762;-71
2021/11/20 06:30:55;;;;;;;37.95;20.48;;;;;;;14.28;59.69;102617.41;4930498;28;122900;-70
2021/11/20 06:33:25;;;;;;;40.65;21.02;;;;;;;14.28;59.65;102614.72;4931278;28;118429;-71
2021/11/20 06:36:22;;;;;;;;;;;;;;;14.27;60.01;102615.66;4943193;28;119096;-71
2021/11/20 06:38:55;;;;;;;41.88;20.63;;;;;;;14.27;59.86;102616.53;4930094;28;123565;-71
2021/11/20 06:41:23;;;;;;;40.35;20.10;;;;;;;14.27;59.67;102615.66;4930498;28;121569;-71
2021/11/20 06:43:50;;;;;;;40.33;21.02;;;;;;;14.27;59.48;102615.66;4931217;28;118647;-71
2021/11/20 06:46:18;;;;;;;45.53;21.98;;;;;;;14.27;59.53;102623.66;4931257;28;118857;-71
2021/11/20 06:48:46;;;;;;;40.60;21.05;;;;;;;14.27;59.51;102621.00;4929531;28;123388;-71
2021/11/20 06:51:24;;;;;;;41.92;21.63;;;;;;;14.27;59.48;102621.00;4913813;28;122971;-71
2021/11/20 06:54:11;;;;;;;42.40;20.92;;;;;;;14.26;59.53;102620.13;4934046;28;120120;-71
2021/11/20 06:57:03;;;;;;;41.83;20.95;;;;;;;14.25;59.55;102614.84;4949156;28;119761;-71
2021/11/20 07:02:33;;;;;;;38.08;20.48;;;;;;;14.24;59.47;102610.41;4935854;28;123065;-69
2021/11/20 07:05:01;;;;;;;38.80;20.35;;;;;;;14.23;59.63;102620.22;4930521;28;119443;-69
2021/11/20 07:07:28;;;;;;;38.40;20.13;;;;;;;14.24;59.53;102615.75;4948208;28;119979;-69
2021/11/20 07:09:57;;;;;;;37.28;20.45;;;;;;;14.25;59.44;102617.50;4930103;28;124395;-70
2021/11/20 07:12:24;;;;;;;37.10;21.08;;;;;;;14.25;59.37;102617.50;4924825;28;124353;-70
2021/11/20 07:14:51;;;;;;;36.08;20.05;;;;;;;14.24;59.41;102613.09;4929499;28;118401;-70
2021/11/20 07:17:20;;;;;;;39.00;21.23;;;;;;;14.23;59.53;102614.03;4929624;28;118634;-70
2021/11/20 07:20:15;;;;;;;36.17;20.23;;;;;;;14.21;59.39;102612.28;4933451;28;124629;-70
2021/11/20 07:23:09;;;;;;;38.28;20.63;;;;;;;14.20;59.57;102614.97;4933788;28;124005;-70
2021/11/20 07:25:37;;;;;;;37.65;20.48;;;;;;;14.20;59.47;102615.88;4930368;28;118593;-70
2021/11/20 07:28:06;;;;;;;37.70;20.50;;;;;;;14.21;59.35;102612.28;4936444;28;118616;-70
2021/11/20 07:30:36;;;;;;;35.42;20.40;;;;;;;14.21;59.35;102603.41;4929338;28;122315;-70
2021/11/20 07:33:05;;;;;;;35.35;19.90;;;;;;;14.23;59.32;102598.03;4947512;28;123633;-70
2021/11/20 07:35:40;;;;;;;37.28;20.55;;;;;;;14.23;59.46;102598.03;4929625;28;118591;-70
2021/11/20 07:38:09;;;;;;;40.20;21.70;;;;;;;14.22;59.29;102607.81;4943039;28;118977;-71
2021/11/20 07:40:39;;;;;;;37.42;20.92;;;;;;;14.20;59.21;102605.22;4929757;28;123813;-70
2021/11/20 07:43:08;;;;;;;38.63;21.42;;;;;;;14.19;59.31;102603.44;4928212;28;122971;-70
2021/11/20 07:46:05;;;;;;;39.58;21.42;;;;;;;14.21;59.25;102590.94;4944374;28;119830;-70
2021/11/20 07:48:35;;;;;;;39.08;20.85;;;;;;;14.23;59.31;102596.25;4914377;28;118362;-70
2021/11/20 07:51:06;;;;;;;38.92;21.83;;;;;;;14.25;59.24;102597.06;4927016;28;123626;-70
2021/11/20 07:53:43;;;;;;;39.50;21.00;;;;;;;14.23;59.11;102608.69;4938340;28;123676;-71
2021/11/20 07:56:14;;;;;;;40.42;21.80;;;;;;;14.20;59.17;102599.88;4935649;28;119498;-70
2021/11/20 07:58:43;;;;;;;36.38;20.67;;;;;;;14.22;59.17;102597.13;4933196;28;119368;-70
2021/11/20 08:01:12;;;;;;;36.08;21.52;;;;;;;14.23;59.21;102598.03;4928611;28;123403;-70
2021/11/20 08:03:43;;;;;;;37.45;21.13;;;;;;;14.25;59.33;102596.19;4929687;28;123458;-70
2021/11/20 08:06:29;;;;;;;;;;;;;;;14.23;59.23;102595.38;4948651;28;120127;-70
2021/11/20 08:09:15;;;;;;;35.25;20.23;;;;;;;14.24;59.29;102595.31;4947036;28;119747;-70
2021/11/20 08:12:05;;;;;;;35.25;19.98;;;;;;;14.25;59.19;102580.19;4929883;28;124382;-71
2021/11/20 08:14:58;;;;;;;35.55;19.90;;;;;;;14.23;59.19;102571.38;4944382;28;124249;-70
2021/11/20 08:17:46;;;;;;;34.13;19.83;;;;;;;14.23;58.98;102568.72;4944936;28;119683;-71
2021/11/20 08:20:34;;;;;;;36.75;20.88;;;;;;;14.21;59.31;102564.31;4928713;28;118421;-72
2021/11/20 08:23:25;;;;;;;38.60;20.60;;;;;;;14.21;59.20;102558.97;4928240;28;125217;-72
2021/11/20 08:25:52;;;;;;;48.83;25.08;;;;;;;14.20;59.34;102557.25;4912633;28;123972;-72
2021/11/20 08:28:21;;;;;;;44.97;24.33;;;;;;;14.23;59.21;102560.72;4935134;28;118544;-73
2021/11/20 08:30:53;;;;;;;41.17;22.42;;;;;;;14.25;59.19;102553.56;4928835;28;120125;-73
2021/11/20 08:33:20;;;;;;;41.60;22.60;;;;;;;14.26;59.14;102549.94;4923864;28;123817;-73
2021/11/20 08:36:09;;;;;;;;;;;;;;;14.26;59.45;102548.19;4947051;28;128747;-72
2021/11/20 08:38:59;;;;;;;49.78;24.95;;;;;;;14.28;58.90;102537.44;4931002;28;120139;-72
2021/11/20 08:41:26;;;;;;;49.35;24.80;;;;;;;14.30;59.24;102547.16;4918126;28;118460;-72
2021/11/20 08:43:54;;;;;;;44.08;22.85;;;;;;;14.32;59.23;102544.44;4930670;28;124252;-72
2021/11/20 08:46:28;;;;;;;42.13;21.13;;;;;;;14.34;59.01;102538.13;4928634;28;123303;-72
2021/11/20 08:48:56;;;;;;;42.88;20.85;;;;;;;14.35;58.88;102531.88;4929642;28;120145;-72
2021/11/20 08:51:26;;;;;;;44.63;22.30;;;;;;;14.38;59.07;102528.22;4942183;28;119290;-72
2021/11/20 08:53:57;;;;;;;44.83;21.88;;;;;;;14.40;59.08;102529.03;4929670;28;123668;-72
2021/11/20 08:56:25;;;;;;;45.88;21.80;;;;;;;14.44;59.02;102533.34;4926851;28;124050;-72
2021/11/20 08:59:06;;;;;;;44.65;22.10;;;;;;;14.46;58.82;102531.50;4929736;28;119238;-72
2021/11/20 09:02:11;;;;;;;42.17;20.73;;;;;;;14.49;58.92;102531.41;4918947;28;119435;-72
2021/11/20 09:04:51;;;;;;;40.58;21.20;;;;;;;14.51;59.05;102523.34;4928611;28;123160;-74
2021/11/20 09:07:47;;;;;;;43.00;21.30;;;;;;;14.54;59.05;102524.13;4932824;28;123422;-74
2021/11/20 09:10:33;;;;;;;;;;;;;;;14.56;59.34;102519.59;4931142;28;118555;-74
2021/11/20 09:13:17;;;;;;;39.67;19.73;;;;;;;14.60;59.07;102521.25;4927838;28;118501;-74
2021/11/20 09:15:59;;;;;;;40.30;19.50;;;;;;;14.60;58.92;102518.59;4910380;28;123588;-73
2021/11/20 09:18:30;;;;;;;39.08;20.10;;;;;;;14.62;58.86;102521.22;4924475;28;123492;-74
2021/11/20 09:20:57;;;;;;;37.88;20.60;;;;;;;14.66;58.94;102516.66;4922886;28;119419;-73
2021/11/20 09:23:40;;;;;;;34.50;19.95;;;;;;;14.69;58.86;102511.19;4926239;28;118955;-74
2021/11/20 09:26:29;;;;;;;35.63;20.17;;;;;;;14.69;58.81;102511.19;4930654;28;123599;-74
2021/11/20 09:29:00;;;;;;;35.75;20.02;;;;;;;14.71;58.83;102514.66;4913525;28;123420;-74
2021/11/20 09:31:30;;;;;;;32.30;18.40;;;;;;;14.73;58.69;102512.81;4931982;28;119445;-74
2021/11/20 09:34:01;;;;;;;31.65;17.88;;;;;;;14.73;58.64;102512.81;4934302;28;119600;-71
2021/11/20 09:36:30;;;;;;;29.83;17.13;;;;;;;14.74;58.76;102509.22;4927857;28;123166;-72
2021/11/20 09:39:19;;;;;;;30.50;16.83;;;;;;;14.74;58.71;102503.91;4926839;28;124017;-72
2021/11/20 09:42:11;;;;;;;28.23;16.27;;;;;;;14.73;58.69;102503.03;4906552;28;119370;-73
2021/11/20 09:44:48;;;;;;;31.70;17.75;;;;;;;14.75;58.63;102505.66;4926388;28;119746;-72
2021/11/20 09:47:41;;;;;;;28.80;16.38;;;;;;;14.76;58.70;102510.03;4901106;28;123662;-72
2021/11/20 09:50:15;;;;;;;31.67;17.23;;;;;;;14.79;58.74;102512.63;4941624;28;123293;-73
2021/11/20 09:52:47;;;;;;;30.67;16.85;;;;;;;14.78;58.65;102516.19;4922635;28;118178;-74
2021/11/20 09:55:24;;;;;;;29.92;16.50;;;;;;;14.78;58.93;102516.19;4927276;28;120088;-73
2021/11/20 09:58:17;;;;;;;29.63;16.60;;;;;;;14.78;58.85;102506.38;4942301;28;123624;-72
2021/11/20 10:01:06;;;;;;;30.00;16.65;;;;;;;14.79;58.70;102501.94;4940120;28;124477;-73
2021/11/20 10:03:40;;;;;;;33.17;17.08;;;;;;;14.79;58.83;102499.28;4945666;28;119706;-73
2021/11/20 10:06:21;;;;;;;32.53;17.33;;;;;;;14.80;58.83;102495.66;4930148;28;119066;-73
2021/11/20 10:08:49;;;;;;;32.40;16.77;;;;;;;14.81;58.84;102494.75;4934255;28;124801;-73
2021/11/20 10:11:26;;;;;;;32.08;17.17;;;;;;;14.82;58.93;102491.16;4949490;28;123533;-72
2021/11/20 10:14:10;;;;;;;31.58;16.92;;;;;;;14.82;58.79;102485.81;4931633;28;119500;-72
2021/11/20 10:16:46;;;;;;;32.53;16.92;;;;;;;14.82;58.95;102485.81;4945920;28;119320;-73
2021/11/20 10:19:17;;;;;;;30.50;16.23;;;;;;;14.82;59.06;102480.47;4949089;28;123530;-73
2021/11/20 10:22:13;;;;;;;31.17;15.82;;;;;;;14.81;59.13;102478.75;4931576;28;123196;-73
2021/11/20 10:25:22;;;;;;;32.42;17.38;;;;;;;14.82;59.19;102475.13;4928108;28;120522;-73
2021/11/20 10:28:14;;;;;;;31.00;16.80;;;;;;;14.81;59.24;102468.06;4931753;28;119492;-74
2021/11/20 10:31:15;;;;;;;31.05;15.77;;;;;;;14.80;59.20;102471.66;4911346;28;123096;-73
2021/11/20 10:33:50;;;;;;;32.58;16.75;;;;;;;14.82;59.18;102464.47;4931058;28;124369;-74
2021/11/20 10:36:55;;;;;;;33.83;17.17;;;;;;;14.84;59.23;102462.59;4931976;28;119553;-73
2021/11/20 10:39:33;;;;;;;34.20;17.02;;;;;;;14.88;59.20;102458.94;4924842;28;119838;-73
2021/11/20 10:42:17;;;;;;;31.88;17.92;;;;;;;14.88;59.23;102458.94;4928945;28;123984;-72
2021/11/20 10:45:09;;;;;;;32.72;16.60;;;;;;;14.91;59.42;102458.78;4948053;28;122317;-73
2021/11/20 10:47:52;;;;;;;37.00;17.55;;;;;;;14.92;59.32;102454.34;4933343;28;119453;-73
2021/11/20 10:50:45;;;;;;;33.13;17.92;;;;;;;14.92;59.40;102455.22;4943539;28;119215;-74
2021/11/20 10:53:37;;;;;;;35.75;18.05;;;;;;;14.93;59.36;102446.25;4932991;28;124075;-73
2021/11/20 10:56:13;;;;;;;30.30;15.82;;;;;;;14.95;59.34;102444.41;4943792;28;123694;-73
2021/11/20 10:58:55;;;;;;;33.05;17.25;;;;;;;14.96;59.38;102435.50;4913334;28;119507;-73
2021/11/20 11:01:34;;;;;;;33.85;17.40;;;;;;;14.96;59.36;102434.63;4928549;28;118420;-73
2021/11/20 11:04:46;;;;;;;32.80;16.58;;;;;;;14.94;59.43;102426.69;4934967;28;122916;-74
2021/11/20 11:07:26;;;;;;;31.30;16.05;;;;;;;14.93;59.67;102414.25;4931819;28;122639;-72
2021/11/20 11:10:20;;;;;;;32.75;17.10;;;;;;;14.93;59.47;102411.59;4946789;28;118623;-73
2021/11/20 11:12:56;;;;;;;31.65;15.73;;;;;;;14.95;59.43;102409.72;4945465;28;117937;-73
2021/11/20 11:15:59;;;;;;;31.67;16.40;;;;;;;14.95;59.55;102407.06;4934772;28;123903;-73
2021/11/20 11:18:46;;;;;;;30.48;16.50;;;;;;;14.95;59.64;102401.72;4944660;28;123776;-73
2021/11/20 11:21:38;;;;;;;29.95;15.68;;;;;;;14.96;59.58;102397.28;4926406;28;119428;-73
2021/11/20 11:24:39;;;;;;;31.88;16.50;;;;;;;14.95;59.57;102400.84;4945924;28;118426;-72
2021/11/20 11:27:11;;;;;;;28.73;15.38;;;;;;;14.95;59.37;102391.03;4915631;28;123718;-74
2021/11/20 11:29:47;;;;;;;29.08;15.15;;;;;;;14.93;59.64;102387.56;4945751;28;124573;-73
2021/11/20 11:32:15;;;;;;;;;;;;;;;14.91;59.57;102394.78;4921810;28;120908;-73
2021/11/20 11:34:52;;;;;;;29.90;15.18;;;;;;;14.94;59.63;102389.31;4930143;28;118718;-73
2021/11/20 11:37:40;;;;;;;27.27;14.32;;;;;;;14.93;59.60;102390.25;4936052;28;123260;-77
2021/11/20 11:40:13;;;;;;;29.88;15.13;;;;;;;14.93;59.59;102382.22;4944642;28;123690;-73
2021/11/20 11:42:57;;;;;;;30.27;15.15;;;;;;;14.92;59.72;102369.84;4928000;28;119155;-73